Time;durP1;ratioP1;P1;durP2;ratioP2;P2;SDS_P1;SDS_P2;PMS_P1;PMS_P2;Temp;Humidity;BMP_temperature;BMP_pressure;BME280_temperature;BME280_humidity;BME280_pressure;Samples;Min_cycle;Max_cycle;Signal;HPM_P1;HPM_P2
2023/12/14 00:00:51;;;;;;;26.60;20.45;;;;;;;;;;5136999;27;20058;-59
2023/12/14 00:03:18;;;;;;;18.65;15.48;;;;;;;;;;5136570;27;20055;-59
2023/12/14 00:05:45;;;;;;;15.20;12.07;;;;;;;;;;5136328;27;20062;-59
2023/12/14 00:08:13;;;;;;;14.88;10.75;;;;;;;;;;5136458;27;20047;-59
2023/12/14 00:10:40;;;;;;;12.05;10.68;;;;;;;;;;5136802;27;20070;-59
2023/12/14 00:13:07;;;;;;;10.65;9.43;;;;;;;;;;5136871;27;20062;-59
2023/12/14 00:15:34;;;;;;;10.73;9.07;;;;;;;;;;5136682;27;20066;-59
2023/12/14 00:18:01;;;;;;;12.43;9.82;;;;;;;;;;5136025;27;20051;-59
2023/12/14 00:20:28;;;;;;;11.13;9.02;;;;;;;;;;5136688;27;20058;-59
2023/12/14 00:22:54;;;;;;;12.00;9.60;;;;;;;;;;5136207;27;20057;-59
2023/12/14 00:25:23;;;;;;;10.60;9.13;;;;;;;;;;5136069;27;20069;-59
2023/12/14 00:27:50;;;;;;;11.73;9.35;;;;;;;;;;5136268;27;20051;-59
2023/12/14 00:30:16;;;;;;;12.82;9.05;;;;;;;;;;5136200;27;20047;-58
2023/12/14 00:32:43;;;;;;;13.55;9.27;;;;;;;;;;5136195;27;20411;-59
2023/12/14 00:35:10;;;;;;;10.73;7.60;;;;;;;;;;5135979;27;20051;-59
2023/12/14 00:37:37;;;;;;;8.68;7.03;;;;;;;;;;5135674;27;20051;-59
2023/12/14 00:40:04;;;;;;;11.80;7.45;;;;;;;;;;5135865;27;20047;-59
2023/12/14 00:42:32;;;;;;;8.73;7.10;;;;;;;;;;5136166;27;20062;-59
2023/12/14 00:44:59;;;;;;;8.45;6.85;;;;;;;;;;5135922;27;20047;-59
2023/12/14 00:47:26;;;;;;;10.30;8.07;;;;;;;;;;5135512;27;20054;-59
2023/12/14 00:49:53;;;;;;;10.07;8.65;;;;;;;;;;5136111;27;20051;-59
2023/12/14 00:52:20;;;;;;;11.55;9.48;;;;;;;;;;5136248;27;20051;-59
2023/12/14 00:54:47;;;;;;;12.85;10.43;;;;;;;;;;5135869;27;20055;-59
2023/12/14 00:57:13;;;;;;;11.95;10.23;;;;;;;;;;5135876;27;20055;-59
2023/12/14 00:59:41;;;;;;;14.23;11.40;;;;;;;;;;5135720;27;20506;-59
2023/12/14 01:02:08;;;;;;;14.73;12.00;;;;;;;;;;5135338;27;20059;-59
2023/12/14 01:04:35;;;;;;;13.05;10.73;;;;;;;;;;5135698;27;20062;-59
2023/12/14 01:07:02;;;;;;;11.82;10.48;;;;;;;;;;5135838;27;20062;-59
2023/12/14 01:09:29;;;;;;;11.65;9.57;;;;;;;;;;5135838;27;20058;-59
2023/12/14 01:11:55;;;;;;;11.77;9.90;;;;;;;;;;5135876;27;20062;-59
2023/12/14 01:14:22;;;;;;;12.13;10.23;;;;;;;;;;5135597;27;20372;-59
2023/12/14 01:16:50;;;;;;;15.45;11.32;;;;;;;;;;5135350;27;20068;-59
2023/12/14 01:19:17;;;;;;;12.88;10.68;;;;;;;;;;5135558;27;20058;-59
2023/12/14 01:21:44;;;;;;;13.45;10.80;;;;;;;;;;5135867;27;20047;-59
2023/12/14 01:24:11;;;;;;;15.07;10.65;;;;;;;;;;5134893;27;20416;-59
2023/12/14 01:26:38;;;;;;;12.30;9.90;;;;;;;;;;5135093;27;20077;-59
2023/12/14 01:29:04;;;;;;;12.20;10.00;;;;;;;;;;5134793;27;20054;-59
2023/12/14 01:31:31;;;;;;;11.45;9.20;;;;;;;;;;5135136;27;20086;-59
2023/12/14 01:34:00;;;;;;;11.57;9.68;;;;;;;;;;5134962;27;20055;-58
2023/12/14 01:36:27;;;;;;;9.80;8.18;;;;;;;;;;5134837;27;20058;-59
2023/12/14 01:38:54;;;;;;;8.95;7.40;;;;;;;;;;5134790;27;20051;-58
2023/12/14 01:41:21;;;;;;;7.60;6.50;;;;;;;;;;5135013;27;20051;-59
2023/12/14 01:43:47;;;;;;;6.20;5.60;;;;;;;;;;5134931;27;20051;-59
2023/12/14 01:46:16;;;;;;;5.90;5.30;;;;;;;;;;5135056;27;20055;-58
2023/12/14 01:48:43;;;;;;;7.10;6.40;;;;;;;;;;5134699;27;20051;-58
2023/12/14 01:51:11;;;;;;;6.93;6.07;;;;;;;;;;5135078;27;20100;-58
2023/12/14 01:53:38;;;;;;;6.88;6.10;;;;;;;;;;5134528;27;20407;-58
2023/12/14 01:56:05;;;;;;;7.00;6.03;;;;;;;;;;5134291;27;20062;-58
2023/12/14 01:58:32;;;;;;;7.40;6.00;;;;;;;;;;5133971;27;20476;-59
2023/12/14 02:01:02;;;;;;;7.43;6.63;;;;;;;;;;5135093;27;20054;-59
2023/12/14 02:03:29;;;;;;;9.88;7.80;;;;;;;;;;5134190;27;20054;-59
2023/12/14 02:05:57;;;;;;;8.75;7.13;;;;;;;;;;5132456;27;20158;-58
2023/12/14 02:08:26;;;;;;;9.73;7.80;;;;;;;;;;5122948;27;20044;-59
2023/12/14 02:10:52;;;;;;;16.23;10.65;;;;;;;;;;5113820;28;20058;-59
2023/12/14 02:13:19;;;;;;;11.90;9.63;;;;;;;;;;5113908;28;20047;-58
2023/12/14 02:15:47;;;;;;;15.07;11.25;;;;;;;;;;5113908;28;20062;-59
2023/12/14 02:18:13;;;;;;;12.88;9.93;;;;;;;;;;5114127;27;20055;-59
2023/12/14 02:20:40;;;;;;;19.77;14.13;;;;;;;;;;5114259;28;20465;-59
2023/12/14 02:23:08;;;;;;;16.77;12.27;;;;;;;;;;5113781;28;20412;-59
2023/12/14 02:25:35;;;;;;;16.30;12.57;;;;;;;;;;5127919;27;20078;-59
2023/12/14 02:28:02;;;;;;;19.45;14.48;;;;;;;;;;5133814;27;20051;-58
2023/12/14 02:30:29;;;;;;;17.58;13.38;;;;;;;;;;5134087;27;20054;-58
2023/12/14 02:32:55;;;;;;;16.70;12.32;;;;;;;;;;5134185;27;20451;-58
2023/12/14 02:35:22;;;;;;;17.92;13.27;;;;;;;;;;5133861;27;20051;-58
2023/12/14 02:37:49;;;;;;;20.90;13.90;;;;;;;;;;5133632;27;20051;-58
2023/12/14 02:40:18;;;;;;;17.02;13.63;;;;;;;;;;5133832;27;20071;-58
2023/12/14 02:42:44;;;;;;;16.73;13.77;;;;;;;;;;5133523;27;20518;-59
2023/12/14 02:45:11;;;;;;;18.98;13.63;;;;;;;;;;5133865;27;20058;-58
2023/12/14 02:47:38;;;;;;;15.50;12.65;;;;;;;;;;5133606;27;20055;-59
2023/12/14 02:50:05;;;;;;;17.33;12.85;;;;;;;;;;5133554;27;20055;-59
2023/12/14 02:52:32;;;;;;;15.18;11.82;;;;;;;;;;5133674;27;20051;-58
2023/12/14 02:54:59;;;;;;;16.40;12.82;;;;;;;;;;5133608;27;20055;-58
2023/12/14 02:57:27;;;;;;;14.43;11.13;;;;;;;;;;5133572;27;20062;-58
2023/12/14 02:59:54;;;;;;;13.95;11.50;;;;;;;;;;5133709;27;20484;-58
2023/12/14 03:02:21;;;;;;;14.50;11.73;;;;;;;;;;5133354;27;20054;-58
2023/12/14 03:04:48;;;;;;;14.77;11.82;;;;;;;;;;5133478;27;20058;-58
2023/12/14 03:07:15;;;;;;;11.20;9.45;;;;;;;;;;5133475;27;20058;-58
2023/12/14 03:09:44;;;;;;;13.55;10.45;;;;;;;;;;5135639;27;20043;-58
2023/12/14 03:12:10;;;;;;;11.85;10.10;;;;;;;;;;5140731;27;20479;-58
2023/12/14 03:14:40;;;;;;;11.80;10.13;;;;;;;;;;5139908;27;20051;-58
2023/12/14 03:17:12;;;;;;;13.57;10.93;;;;;;;;;;5140530;27;20491;-58
2023/12/14 03:19:39;;;;;;;10.77;9.18;;;;;;;;;;5140232;27;20061;-59
2023/12/14 03:22:06;;;;;;;11.73;9.15;;;;;;;;;;5139981;27;20059;-59
2023/12/14 03:24:32;;;;;;;10.15;8.77;;;;;;;;;;5139657;27;20055;-60
2023/12/14 03:27:00;;;;;;;10.38;8.18;;;;;;;;;;5140154;27;20530;-59
2023/12/14 03:29:27;;;;;;;10.27;8.57;;;;;;;;;;5139720;27;20051;-59
2023/12/14 03:31:56;;;;;;;9.48;8.48;;;;;;;;;;5139874;27;20058;-60
2023/12/14 03:34:23;;;;;;;11.82;9.85;;;;;;;;;;5140265;27;20058;-60
2023/12/14 03:36:50;;;;;;;9.93;8.25;;;;;;;;;;5140098;27;20055;-59
2023/12/14 03:39:17;;;;;;;9.60;8.25;;;;;;;;;;5139629;27;20058;-60
2023/12/14 03:41:44;;;;;;;11.00;8.95;;;;;;;;;;5140090;27;20077;-60
2023/12/14 03:44:11;;;;;;;10.35;8.70;;;;;;;;;;5140098;27;20055;-60
2023/12/14 03:46:38;;;;;;;10.52;9.13;;;;;;;;;;5140031;27;20051;-59
2023/12/14 03:49:06;;;;;;;11.98;10.20;;;;;;;;;;5139867;27;20054;-60
2023/12/14 03:51:33;;;;;;;10.45;9.05;;;;;;;;;;5140390;27;20051;-60
2023/12/14 03:54:00;;;;;;;10.18;8.65;;;;;;;;;;5139564;27;20047;-60
2023/12/14 03:56:26;;;;;;;10.55;9.43;;;;;;;;;;5139526;27;20051;-60
2023/12/14 03:58:53;;;;;;;13.77;11.20;;;;;;;;;;5139924;27;20051;-59
2023/12/14 04:01:20;;;;;;;16.63;13.63;;;;;;;;;;5140160;27;20391;-58
2023/12/14 04:03:47;;;;;;;17.00;13.77;;;;;;;;;;5139516;27;20416;-59
2023/12/14 04:06:16;;;;;;;19.10;14.55;;;;;;;;;;5139961;27;20054;-58
2023/12/14 04:08:43;;;;;;;18.98;15.70;;;;;;;;;;5139510;27;20099;-58
2023/12/14 04:11:10;;;;;;;23.48;17.10;;;;;;;;;;5139939;27;20055;-58
2023/12/14 04:13:36;;;;;;;21.15;17.30;;;;;;;;;;5139540;27;20051;-59
2023/12/14 04:16:03;;;;;;;21.70;16.60;;;;;;;;;;5139950;27;20051;-59
2023/12/14 04:18:30;;;;;;;22.23;16.35;;;;;;;;;;5139923;27;20050;-58
2023/12/14 04:20:57;;;;;;;20.83;15.85;;;;;;;;;;5138574;27;20043;-58
2023/12/14 04:23:26;;;;;;;22.35;15.82;;;;;;;;;;5136373;27;20051;-58
2023/12/14 04:25:53;;;;;;;22.45;16.20;;;;;;;;;;5136424;27;20051;-59
2023/12/14 04:28:20;;;;;;;18.67;13.52;;;;;;;;;;5135942;27;20051;-58
2023/12/14 04:30:47;;;;;;;19.08;14.05;;;;;;;;;;5136444;27;20047;-59
2023/12/14 04:33:13;;;;;;;18.17;13.85;;;;;;;;;;5136358;27;20407;-59
2023/12/14 04:35:41;;;;;;;17.40;12.93;;;;;;;;;;5136601;27;20490;-59
2023/12/14 04:38:08;;;;;;;18.27;13.23;;;;;;;;;;5136114;27;20062;-58
2023/12/14 04:40:36;;;;;;;19.55;14.60;;;;;;;;;;5136233;27;20047;-58
2023/12/14 04:43:03;;;;;;;16.95;12.82;;;;;;;;;;5135845;27;20062;-58
2023/12/14 04:45:30;;;;;;;15.25;11.63;;;;;;;;;;5135865;27;20151;-59
2023/12/14 04:47:57;;;;;;;16.95;11.90;;;;;;;;;;5135395;27;20415;-59
2023/12/14 04:50:23;;;;;;;17.90;12.05;;;;;;;;;;5135581;27;20042;-58
2023/12/14 04:52:50;;;;;;;14.98;10.52;;;;;;;;;;5135483;27;20051;-59
2023/12/14 04:55:17;;;;;;;13.55;10.13;;;;;;;;;;5135385;27;20399;-59
2023/12/14 04:57:48;;;;;;;11.35;9.05;;;;;;;;;;5135693;27;20403;-61
2023/12/14 05:00:16;;;;;;;11.32;8.50;;;;;;;;;;5135546;27;20050;-59
2023/12/14 05:02:47;;;;;;;10.68;8.27;;;;;;;;;;5135389;27;20051;-59
2023/12/14 05:05:14;;;;;;;11.48;8.82;;;;;;;;;;5134922;27;20054;-59
2023/12/14 05:07:41;;;;;;;12.20;8.88;;;;;;;;;;5135259;27;20047;-59
2023/12/14 05:10:09;;;;;;;11.18;8.43;;;;;;;;;;5135315;27;20498;-59
2023/12/14 05:12:36;;;;;;;11.43;8.13;;;;;;;;;;5135468;27;20377;-59
2023/12/14 05:15:05;;;;;;;11.35;8.95;;;;;;;;;;5135104;27;20058;-59
2023/12/14 05:17:31;;;;;;;11.45;8.98;;;;;;;;;;5135480;27;20058;-59
2023/12/14 05:19:58;;;;;;;11.40;8.18;;;;;;;;;;5134827;27;20047;-59
2023/12/14 05:22:25;;;;;;;12.15;9.68;;;;;;;;;;5135118;27;20377;-58
2023/12/14 05:24:52;;;;;;;10.77;8.75;;;;;;;;;;5134543;27;20055;-59
2023/12/14 05:27:19;;;;;;;11.60;8.93;;;;;;;;;;5134604;27;20055;-59
2023/12/14 05:29:46;;;;;;;13.85;9.90;;;;;;;;;;5134897;27;20043;-61
2023/12/14 05:32:14;;;;;;;11.07;8.30;;;;;;;;;;5134963;27;20058;-59
2023/12/14 05:34:41;;;;;;;10.63;8.45;;;;;;;;;;5134195;27;20081;-59
2023/12/14 05:37:08;;;;;;;10.70;8.43;;;;;;;;;;5135084;27;20059;-60
2023/12/14 05:39:34;;;;;;;9.88;7.78;;;;;;;;;;5134698;27;20051;-60
2023/12/14 05:42:01;;;;;;;12.52;8.90;;;;;;;;;;5134734;27;20058;-59
2023/12/14 05:44:28;;;;;;;13.40;9.23;;;;;;;;;;5134788;27;20074;-59
2023/12/14 05:46:55;;;;;;;9.57;7.65;;;;;;;;;;5134727;27;20377;-59
2023/12/14 05:49:23;;;;;;;9.88;7.93;;;;;;;;;;5134735;27;20472;-59
2023/12/14 05:51:50;;;;;;;10.27;8.35;;;;;;;;;;5134688;27;20054;-58
2023/12/14 05:54:16;;;;;;;10.75;7.63;;;;;;;;;;5134246;27;20055;-58
2023/12/14 05:56:43;;;;;;;10.23;7.65;;;;;;;;;;5134612;27;20055;-59
2023/12/14 05:59:10;;;;;;;13.25;7.93;;;;;;;;;;5134139;27;20071;-59
2023/12/14 06:01:37;;;;;;;11.45;8.57;;;;;;;;;;5134631;27;20400;-59
2023/12/14 06:04:04;;;;;;;11.57;8.13;;;;;;;;;;5134319;27;20058;-59
2023/12/14 06:06:32;;;;;;;9.50;7.75;;;;;;;;;;5133928;27;20062;-58
2023/12/14 06:08:59;;;;;;;9.77;7.72;;;;;;;;;;5134418;27;20062;-59
2023/12/14 06:11:26;;;;;;;9.23;8.00;;;;;;;;;;5134057;27;20054;-59
2023/12/14 06:13:52;;;;;;;10.73;8.55;;;;;;;;;;5133920;27;20396;-58
2023/12/14 06:16:19;;;;;;;11.20;9.07;;;;;;;;;;5134080;27;20054;-58
2023/12/14 06:18:46;;;;;;;11.52;9.00;;;;;;;;;;5133959;27;20403;-58
2023/12/14 06:21:13;;;;;;;10.10;8.00;;;;;;;;;;5134147;27;20047;-59
2023/12/14 06:23:41;;;;;;;10.13;8.57;;;;;;;;;;5133917;27;20074;-59
2023/12/14 06:26:08;;;;;;;10.43;8.20;;;;;;;;;;5133366;27;20051;-58
2023/12/14 06:28:35;;;;;;;10.73;8.52;;;;;;;;;;5134030;27;20058;-58
2023/12/14 06:31:02;;;;;;;11.82;8.18;;;;;;;;;;5134041;27;20051;-58
2023/12/14 06:33:29;;;;;;;11.15;8.65;;;;;;;;;;5133301;27;20058;-58
2023/12/14 06:35:55;;;;;;;12.23;8.70;;;;;;;;;;5133683;27;20070;-58
2023/12/14 06:38:22;;;;;;;12.77;9.50;;;;;;;;;;5133933;27;20059;-58
2023/12/14 06:40:50;;;;;;;13.73;9.57;;;;;;;;;;5133862;27;20047;-58
2023/12/14 06:43:17;;;;;;;13.40;10.10;;;;;;;;;;5133484;27;20054;-58
2023/12/14 06:45:44;;;;;;;13.88;10.25;;;;;;;;;;5133382;27;20051;-59
2023/12/14 06:48:11;;;;;;;11.85;9.00;;;;;;;;;;5133519;27;20055;-59
2023/12/14 06:50:38;;;;;;;12.95;10.15;;;;;;;;;;5133881;27;20051;-59
2023/12/14 06:53:04;;;;;;;15.13;11.15;;;;;;;;;;5133548;27;20496;-58
2023/12/14 06:55:31;;;;;;;12.68;9.75;;;;;;;;;;5133786;27;20376;-58
2023/12/14 06:57:59;;;;;;;13.05;10.10;;;;;;;;;;5133789;27;20059;-59
2023/12/14 07:00:29;;;;;;;15.30;10.70;;;;;;;;;;5133558;27;20051;-58
2023/12/14 07:02:56;;;;;;;14.25;10.40;;;;;;;;;;5133357;27;20062;-58
2023/12/14 07:05:22;;;;;;;14.25;10.98;;;;;;;;;;5133323;27;20062;-58
2023/12/14 07:07:49;;;;;;;12.23;9.73;;;;;;;;;;5133324;27;20058;-58
2023/12/14 07:10:16;;;;;;;15.85;10.77;;;;;;;;;;5133516;27;20047;-59
2023/12/14 07:12:43;;;;;;;14.93;12.20;;;;;;;;;;5133037;27;20047;-59
2023/12/14 07:15:11;;;;;;;14.90;11.82;;;;;;;;;;5133422;27;20077;-59
2023/12/14 07:17:38;;;;;;;16.30;12.52;;;;;;;;;;5133487;27;20058;-59
2023/12/14 07:20:06;;;;;;;16.38;12.90;;;;;;;;;;5133288;27;20055;-58
2023/12/14 07:22:33;;;;;;;15.57;12.05;;;;;;;;;;5133440;27;20055;-58
2023/12/14 07:24:59;;;;;;;16.90;13.02;;;;;;;;;;5133260;27;20062;-59
2023/12/14 07:27:26;;;;;;;16.52;12.40;;;;;;;;;;5133288;27;20051;-58
2023/12/14 07:29:53;;;;;;;15.38;12.63;;;;;;;;;;5133224;27;20058;-59
2023/12/14 07:32:21;;;;;;;14.57;12.18;;;;;;;;;;5132904;27;20051;-59
2023/12/14 07:34:48;;;;;;;17.25;13.32;;;;;;;;;;5133199;27;20054;-59
2023/12/14 07:37:15;;;;;;;17.20;13.20;;;;;;;;;;5133357;27;20063;-58
2023/12/14 07:39:42;;;;;;;16.48;12.73;;;;;;;;;;5120185;27;20047;-59
2023/12/14 07:42:08;;;;;;;17.00;13.80;;;;;;;;;;5122475;27;20480;-60
2023/12/14 07:44:35;;;;;;;18.45;13.15;;;;;;;;;;5128885;27;20051;-60
2023/12/14 07:47:03;;;;;;;16.17;13.25;;;;;;;;;;5128532;27;20518;-61
2023/12/14 07:49:31;;;;;;;15.95;12.60;;;;;;;;;;5138864;27;20502;-60
2023/12/14 07:51:58;;;;;;;16.92;13.57;;;;;;;;;;5146702;27;20039;-60
2023/12/14 07:54:26;;;;;;;16.15;12.35;;;;;;;;;;5129821;28;20058;-59
2023/12/14 07:56:53;;;;;;;16.17;13.30;;;;;;;;;;5116100;27;20074;-60
2023/12/14 07:59:20;;;;;;;15.65;12.75;;;;;;;;;;5129630;27;20055;-59
2023/12/14 08:01:47;;;;;;;17.02;13.48;;;;;;;;;;5116089;27;20404;-60
2023/12/14 08:04:14;;;;;;;17.83;14.82;;;;;;;;;;5124422;27;20044;-61
2023/12/14 08:06:42;;;;;;;14.57;13.05;;;;;;;;;;5133158;27;20411;-60
2023/12/14 08:09:09;;;;;;;18.45;14.48;;;;;;;;;;5133029;27;20479;-61
2023/12/14 08:11:36;;;;;;;18.38;14.00;;;;;;;;;;5133110;27;20047;-61
2023/12/14 08:14:03;;;;;;;20.02;14.88;;;;;;;;;;5119404;27;20056;-60
2023/12/14 08:16:29;;;;;;;20.70;14.88;;;;;;;;;;5127587;27;20043;-60
2023/12/14 08:18:56;;;;;;;17.92;14.63;;;;;;;;;;5120826;27;20059;-60
2023/12/14 08:21:23;;;;;;;18.92;14.55;;;;;;;;;;5131868;27;20047;-59
2023/12/14 08:23:51;;;;;;;17.80;14.65;;;;;;;;;;5134245;27;20055;-59
2023/12/14 08:26:18;;;;;;;18.42;15.05;;;;;;;;;;5129031;27;20051;-60
2023/12/14 08:28:45;;;;;;;20.65;14.88;;;;;;;;;;5119861;27;20059;-59
2023/12/14 08:31:12;;;;;;;19.38;15.73;;;;;;;;;;5126076;27;20051;-60
2023/12/14 08:33:38;;;;;;;20.40;16.25;;;;;;;;;;5128352;27;20055;-60
2023/12/14 08:36:05;;;;;;;20.08;15.23;;;;;;;;;;5133199;27;20058;-61
2023/12/14 08:38:32;;;;;;;19.67;15.60;;;;;;;;;;5130793;27;20189;-60
2023/12/14 08:41:00;;;;;;;19.08;15.43;;;;;;;;;;5140556;27;20051;-61
2023/12/14 08:43:27;;;;;;;16.40;13.98;;;;;;;;;;5134305;27;20480;-60
2023/12/14 08:45:54;;;;;;;19.85;15.52;;;;;;;;;;5129370;27;20047;-60
2023/12/14 08:48:21;;;;;;;19.55;16.10;;;;;;;;;;5119125;27;20048;-61
2023/12/14 08:50:48;;;;;;;20.15;15.73;;;;;;;;;;5136527;27;20051;-60
2023/12/14 08:53:15;;;;;;;19.30;14.85;;;;;;;;;;5132885;27;20047;-59
2023/12/14 08:55:41;;;;;;;21.60;17.45;;;;;;;;;;5116861;27;20055;-59
2023/12/14 08:58:10;;;;;;;23.52;17.30;;;;;;;;;;5143037;27;20047;-60
2023/12/14 09:00:36;;;;;;;27.95;19.85;;;;;;;;;;5131993;27;20046;-60
2023/12/14 09:03:03;;;;;;;24.80;18.63;;;;;;;;;;5132754;27;20059;-60
2023/12/14 09:05:30;;;;;;;24.98;19.48;;;;;;;;;;5135650;27;20055;-59
2023/12/14 09:07:59;;;;;;;23.73;18.05;;;;;;;;;;5118747;27;20059;-60
2023/12/14 09:10:26;;;;;;;28.50;20.20;;;;;;;;;;5118605;27;20054;-59
2023/12/14 09:12:53;;;;;;;30.95;22.02;;;;;;;;;;5125966;27;20047;-59
2023/12/14 09:15:21;;;;;;;26.20;19.55;;;;;;;;;;5117044;27;20062;-60
2023/12/14 09:17:48;;;;;;;21.60;16.40;;;;;;;;;;5116480;27;20048;-60
2023/12/14 09:20:14;;;;;;;20.17;16.02;;;;;;;;;;5126484;27;20054;-60
2023/12/14 09:22:41;;;;;;;20.73;16.02;;;;;;;;;;5131694;27;20522;-60
2023/12/14 09:25:09;;;;;;;18.52;14.77;;;;;;;;;;5131352;27;20054;-61
2023/12/14 09:27:36;;;;;;;18.58;15.57;;;;;;;;;;5132409;27;20566;-60
2023/12/14 09:30:03;;;;;;;18.50;15.02;;;;;;;;;;5131837;27;20384;-60
2023/12/14 09:32:31;;;;;;;20.98;15.82;;;;;;;;;;5122537;27;20519;-61
2023/12/14 09:34:58;;;;;;;21.05;16.13;;;;;;;;;;5118148;27;20058;-61
2023/12/14 09:37:24;;;;;;;20.85;16.08;;;;;;;;;;5118928;27;20050;-61
2023/12/14 09:39:51;;;;;;;21.00;16.67;;;;;;;;;;5130267;27;20051;-61
2023/12/14 09:42:19;;;;;;;23.65;18.17;;;;;;;;;;5119254;27;20051;-59
2023/12/14 09:44:47;;;;;;;20.80;16.38;;;;;;;;;;5115011;27;20047;-60
2023/12/14 09:47:13;;;;;;;20.23;16.42;;;;;;;;;;5115612;27;20055;-61
2023/12/14 09:49:42;;;;;;;20.50;15.60;;;;;;;;;;5127977;27;20056;-60
2023/12/14 09:52:09;;;;;;;19.25;15.20;;;;;;;;;;5155331;27;20484;-60
2023/12/14 09:54:36;;;;;;;17.88;15.05;;;;;;;;;;5114453;27;20375;-61
2023/12/14 09:57:03;;;;;;;17.98;15.25;;;;;;;;;;5115477;27;20047;-60
2023/12/14 09:59:30;;;;;;;19.75;15.55;;;;;;;;;;5116503;27;20391;-61
2023/12/14 10:02:09;;;;;;;18.60;14.68;;;;;;;;;;5116977;27;20108;-60
2023/12/14 10:04:36;;;;;;;20.98;15.60;;;;;;;;;;5128275;27;20066;-60
2023/12/14 10:07:06;;;;;;;17.80;15.40;;;;;;;;;;5114417;27;20047;-60
2023/12/14 10:09:33;;;;;;;19.05;15.38;;;;;;;;;;5125820;27;20058;-60
2023/12/14 10:12:03;;;;;;;18.50;15.43;;;;;;;;;;5133175;27;20506;-61
2023/12/14 10:14:30;;;;;;;19.65;14.48;;;;;;;;;;5121633;27;20047;-60
2023/12/14 10:16:57;;;;;;;18.10;15.35;;;;;;;;;;5113515;27;20145;-59
2023/12/14 10:19:24;;;;;;;20.48;15.35;;;;;;;;;;5116668;27;20051;-59
2023/12/14 10:21:51;;;;;;;22.33;17.10;;;;;;;;;;5127954;27;20047;-60
2023/12/14 10:24:19;;;;;;;21.50;16.80;;;;;;;;;;5128139;27;20051;-59
2023/12/14 10:26:47;;;;;;;21.48;16.88;;;;;;;;;;5113150;28;20058;-60
2023/12/14 10:29:13;;;;;;;19.08;15.75;;;;;;;;;;5124196;27;20050;-60
2023/12/14 10:31:41;;;;;;;20.00;16.85;;;;;;;;;;5123222;27;20055;-60
2023/12/14 10:34:08;;;;;;;22.73;18.13;;;;;;;;;;5117143;27;20043;-60
2023/12/14 10:36:35;;;;;;;24.17;17.98;;;;;;;;;;5133628;27;20049;-60
2023/12/14 10:39:02;;;;;;;24.00;18.25;;;;;;;;;;5128274;27;20043;-61
2023/12/14 10:41:32;;;;;;;23.52;18.15;;;;;;;;;;5133530;27;20407;-60
2023/12/14 10:44:01;;;;;;;21.98;17.45;;;;;;;;;;5125350;27;20047;-60
2023/12/14 10:46:28;;;;;;;24.00;17.88;;;;;;;;;;5118379;27;20492;-59
2023/12/14 10:48:55;;;;;;;20.90;16.33;;;;;;;;;;5121112;27;20499;-59
2023/12/14 10:51:24;;;;;;;23.70;18.42;;;;;;;;;;5115246;27;20271;-60
2023/12/14 10:53:51;;;;;;;22.50;16.85;;;;;;;;;;5112957;28;20049;-60
2023/12/14 10:56:19;;;;;;;20.55;16.42;;;;;;;;;;5136923;27;20062;-62
2023/12/14 10:58:46;;;;;;;22.38;17.15;;;;;;;;;;5127066;27;20055;-60
2023/12/14 11:01:14;;;;;;;19.83;15.65;;;;;;;;;;5131778;27;20051;-60
2023/12/14 11:03:41;;;;;;;20.25;15.63;;;;;;;;;;5130864;27;20047;-60
2023/12/14 11:06:16;;;;;;;21.67;16.88;;;;;;;;;;5118800;27;20058;-60
2023/12/14 11:08:45;;;;;;;22.25;16.73;;;;;;;;;;5128804;27;20460;-60
2023/12/14 11:11:15;;;;;;;23.42;17.40;;;;;;;;;;5132473;28;20059;-61
2023/12/14 11:13:42;;;;;;;23.60;17.40;;;;;;;;;;5129284;27;20483;-62
2023/12/14 11:16:10;;;;;;;23.20;17.40;;;;;;;;;;5124768;27;20461;-60
2023/12/14 11:18:36;;;;;;;22.15;16.63;;;;;;;;;;5126992;28;20492;-60
2023/12/14 11:21:04;;;;;;;25.25;16.67;;;;;;;;;;5119416;27;20098;-60
2023/12/14 11:23:34;;;;;;;20.83;16.42;;;;;;;;;;5126331;27;20054;-60
2023/12/14 11:26:03;;;;;;;20.95;16.83;;;;;;;;;;5121246;27;20043;-60
2023/12/14 11:28:31;;;;;;;20.65;15.63;;;;;;;;;;5119691;28;20053;-60
2023/12/14 11:30:58;;;;;;;21.90;16.60;;;;;;;;;;5122644;27;20051;-60
2023/12/14 11:33:28;;;;;;;21.60;16.42;;;;;;;;;;5115806;28;20047;-59
2023/12/14 11:35:55;;;;;;;21.45;16.58;;;;;;;;;;5119455;27;20054;-59
2023/12/14 11:38:23;;;;;;;21.90;17.13;;;;;;;;;;5136792;27;20062;-60
2023/12/14 11:40:50;;;;;;;21.23;15.70;;;;;;;;;;5136649;27;20051;-61
2023/12/14 11:43:20;;;;;;;21.60;16.00;;;;;;;;;;5133322;27;20480;-61
2023/12/14 11:45:46;;;;;;;;;;;;;;;;;;5137078;27;20047;-60
2023/12/14 11:48:14;;;;;;;22.95;16.20;;;;;;;;;;5135746;27;20438;-59
2023/12/14 11:50:42;;;;;;;20.83;16.20;;;;;;;;;;5119555;27;20048;-60
2023/12/14 11:53:10;;;;;;;21.27;16.27;;;;;;;;;;5116978;27;20403;-59
2023/12/14 11:55:37;;;;;;;22.20;17.27;;;;;;;;;;5113727;27;20058;-59
2023/12/14 11:58:04;;;;;;;21.23;15.98;;;;;;;;;;5110505;27;20062;-60
2023/12/14 12:00:31;;;;;;;19.65;15.40;;;;;;;;;;5115022;27;20499;-60
2023/12/14 12:03:08;;;;;;;20.17;15.02;;;;;;;;;;5114585;27;20055;-61
2023/12/14 12:05:38;;;;;;;21.10;15.82;;;;;;;;;;5113959;27;20058;-59
2023/12/14 12:08:07;;;;;;;24.80;17.08;;;;;;;;;;5117745;27;20043;-60
2023/12/14 12:10:35;;;;;;;22.33;17.27;;;;;;;;;;5137467;27;20055;-59
2023/12/14 12:13:02;;;;;;;20.45;15.75;;;;;;;;;;5135395;27;20063;-60
2023/12/14 12:15:31;;;;;;;21.23;16.48;;;;;;;;;;5130931;27;20475;-60
2023/12/14 12:17:58;;;;;;;20.55;16.80;;;;;;;;;;5121477;27;20412;-59
2023/12/14 12:20:25;;;;;;;22.05;16.33;;;;;;;;;;5121583;27;20069;-60
2023/12/14 12:22:52;;;;;;;24.45;17.33;;;;;;;;;;5120380;27;20055;-60
2023/12/14 12:25:20;;;;;;;23.35;17.05;;;;;;;;;;5133303;27;20058;-60
2023/12/14 12:27:47;;;;;;;20.38;15.77;;;;;;;;;;5116779;27;20380;-60
2023/12/14 12:30:14;;;;;;;20.85;16.20;;;;;;;;;;5126810;27;20475;-60
2023/12/14 12:32:41;;;;;;;22.40;16.40;;;;;;;;;;5122087;27;20051;-60
2023/12/14 12:35:09;;;;;;;22.83;17.40;;;;;;;;;;5116068;27;20405;-60
2023/12/14 12:37:36;;;;;;;22.10;17.45;;;;;;;;;;5116926;27;20055;-59
2023/12/14 12:40:04;;;;;;;23.95;17.65;;;;;;;;;;5122295;27;20051;-60
2023/12/14 12:42:32;;;;;;;22.20;16.98;;;;;;;;;;5123463;27;20062;-59
2023/12/14 12:44:59;;;;;;;22.55;17.02;;;;;;;;;;5119954;27;20047;-59
2023/12/14 12:47:25;;;;;;;22.67;17.27;;;;;;;;;;5118350;27;20055;-59
2023/12/14 12:49:52;;;;;;;22.50;17.50;;;;;;;;;;5118648;27;20052;-59
2023/12/14 12:52:19;;;;;;;22.35;16.77;;;;;;;;;;5128201;27;20062;-59
2023/12/14 12:54:46;;;;;;;25.13;17.80;;;;;;;;;;5117703;27;20074;-60
2023/12/14 12:57:13;;;;;;;26.55;18.98;;;;;;;;;;5134161;27;20051;-60
2023/12/14 12:59:41;;;;;;;25.02;19.00;;;;;;;;;;5124443;27;20412;-60
2023/12/14 13:02:08;;;;;;;26.25;18.90;;;;;;;;;;5150896;27;20047;-59
2023/12/14 13:04:36;;;;;;;27.13;21.00;;;;;;;;;;5147391;27;20050;-60
2023/12/14 13:07:04;;;;;;;25.45;20.48;;;;;;;;;;5141908;27;20049;-60
2023/12/14 13:09:31;;;;;;;28.95;20.85;;;;;;;;;;5140637;27;20053;-60
2023/12/14 13:11:57;;;;;;;24.65;19.60;;;;;;;;;;5145546;27;20047;-60
2023/12/14 13:14:24;;;;;;;25.80;19.83;;;;;;;;;;5138659;27;20039;-60
2023/12/14 13:16:52;;;;;;;28.13;20.13;;;;;;;;;;5138948;27;20051;-59
2023/12/14 13:19:19;;;;;;;23.67;18.23;;;;;;;;;;5140495;27;20077;-60
2023/12/14 13:21:46;;;;;;;28.73;21.52;;;;;;;;;;5136263;27;20051;-59
2023/12/14 13:24:13;;;;;;;24.90;19.65;;;;;;;;;;5147950;27;20442;-59
2023/12/14 13:26:40;;;;;;;26.63;18.65;;;;;;;;;;5144167;27;20055;-60
2023/12/14 13:29:07;;;;;;;20.58;16.52;;;;;;;;;;5150416;27;20604;-59
2023/12/14 13:31:34;;;;;;;23.70;18.15;;;;;;;;;;5141775;27;20051;-60
2023/12/14 13:34:03;;;;;;;23.35;16.92;;;;;;;;;;5137686;27;20046;-59
2023/12/14 13:36:30;;;;;;;26.63;19.63;;;;;;;;;;5147231;27;20132;-59
2023/12/14 13:38:57;;;;;;;23.98;18.00;;;;;;;;;;5149944;27;20047;-59
2023/12/14 13:41:24;;;;;;;25.45;18.85;;;;;;;;;;5153763;27;20077;-60
2023/12/14 13:43:51;;;;;;;25.90;19.70;;;;;;;;;;5138726;27;20047;-60
2023/12/14 13:46:18;;;;;;;28.17;18.75;;;;;;;;;;5130881;27;20483;-60
2023/12/14 13:48:45;;;;;;;29.02;21.15;;;;;;;;;;5154691;27;20371;-60
2023/12/14 13:51:13;;;;;;;32.22;22.30;;;;;;;;;;5151539;27;20047;-60
2023/12/14 13:53:40;;;;;;;30.10;21.17;;;;;;;;;;5153064;27;20412;-60
2023/12/14 13:56:07;;;;;;;29.05;20.52;;;;;;;;;;5151351;27;20407;-59
2023/12/14 13:58:37;;;;;;;37.72;26.50;;;;;;;;;;5142210;27;20419;-59
2023/12/14 14:01:03;;;;;;;;;;;;;;;;;;5144759;27;20047;-59
2023/12/14 14:03:30;;;;;;;28.52;20.35;;;;;;;;;;5150327;27;19926;-60
2023/12/14 14:05:58;;;;;;;31.30;22.33;;;;;;;;;;5149417;27;20050;-59
2023/12/14 14:08:26;;;;;;;29.73;22.13;;;;;;;;;;5140508;27;20396;-60
2023/12/14 14:10:53;;;;;;;25.98;20.90;;;;;;;;;;5140319;27;20051;-59
2023/12/14 14:13:20;;;;;;;28.67;21.15;;;;;;;;;;5140156;27;20054;-59
2023/12/14 14:15:47;;;;;;;31.83;22.42;;;;;;;;;;5144907;27;20140;-59
2023/12/14 14:18:13;;;;;;;28.27;21.33;;;;;;;;;;5133513;27;20051;-59
2023/12/14 14:20:40;;;;;;;30.40;21.77;;;;;;;;;;5149345;27;20051;-59
2023/12/14 14:23:07;;;;;;;26.25;19.92;;;;;;;;;;5146264;27;20058;-60